createdAt,value
2023-02-24T00:00:00.909Z,24.50
2023-02-24T00:01:00.871Z,24.50
2023-02-24T00:02:00.881Z,24.50
2023-02-24T00:03:00.799Z,24.48
2023-02-24T00:04:00.768Z,24.49
2023-02-24T00:05:00.713Z,24.48
2023-02-24T00:06:00.674Z,24.50
2023-02-24T00:07:00.647Z,24.48
2023-02-24T00:08:00.603Z,24.53
2023-02-24T00:09:00.554Z,24.50
2023-02-24T00:10:00.511Z,24.49
2023-02-24T00:11:00.474Z,24.49
2023-02-24T00:12:00.431Z,24.49
2023-02-24T00:13:00.402Z,24.49
2023-02-24T00:14:00.351Z,24.50
2023-02-24T00:15:00.321Z,24.49
2023-02-24T00:16:00.289Z,24.50
2023-02-24T00:17:00.366Z,24.48
2023-02-24T00:18:00.202Z,24.49
2023-02-24T00:19:00.161Z,24.50
2023-02-24T00:20:00.160Z,24.48
2023-02-24T00:21:00.086Z,24.50
2023-02-24T00:22:00.043Z,24.52
2023-02-24T00:23:00.004Z,24.44
2023-02-24T00:23:59.949Z,24.48
2023-02-24T00:24:59.916Z,24.48
2023-02-24T00:25:59.889Z,24.46
2023-02-24T00:26:59.861Z,24.46
2023-02-24T00:27:59.789Z,24.49
2023-02-24T00:28:59.752Z,24.48
2023-02-24T00:29:59.712Z,24.49
2023-02-24T00:30:59.744Z,24.49
2023-02-24T00:31:59.834Z,24.44
2023-02-24T00:32:59.605Z,24.48
2023-02-24T00:33:59.562Z,24.48
2023-02-24T00:34:59.504Z,24.46
2023-02-24T00:35:59.472Z,24.46
2023-02-24T00:36:59.454Z,24.46
2023-02-24T00:37:59.396Z,24.48
2023-02-24T00:38:59.364Z,24.49
2023-02-24T00:39:59.302Z,24.46
2023-02-24T00:40:59.262Z,24.50
2023-02-24T00:41:59.205Z,24.48
2023-02-24T00:42:59.161Z,24.50
2023-02-24T00:43:59.106Z,24.48
2023-02-24T00:44:59.063Z,24.46
2023-02-24T00:45:59.038Z,24.50
2023-02-24T00:46:58.968Z,24.48
2023-02-24T00:47:58.978Z,24.46
2023-02-24T00:48:58.874Z,24.48
2023-02-24T00:49:58.832Z,24.46
2023-02-24T00:50:58.783Z,24.48
2023-02-24T00:51:58.743Z,24.46
2023-02-24T00:52:58.700Z,24.48
2023-02-24T00:53:58.669Z,24.48
2023-02-24T00:54:58.613Z,24.46
2023-02-24T00:55:58.573Z,24.49
2023-02-24T00:56:58.556Z,24.50
2023-02-24T00:57:58.510Z,24.49
2023-02-24T00:58:58.441Z,24.50
2023-02-24T00:59:58.415Z,24.44
2023-02-24T01:00:58.353Z,24.48
2023-02-24T01:01:58.436Z,24.46
2023-02-24T01:02:58.271Z,24.48
2023-02-24T01:03:58.250Z,24.44
2023-02-24T01:04:58.188Z,24.46
2023-02-24T01:05:58.149Z,24.44
2023-02-24T01:06:58.116Z,24.46
2023-02-24T01:07:58.077Z,24.46
2023-02-24T01:08:58.051Z,24.46
2023-02-24T01:09:57.991Z,24.43
2023-02-24T01:10:57.953Z,24.46
2023-02-24T01:11:57.953Z,24.44
2023-02-24T01:12:57.887Z,24.49
2023-02-24T01:13:57.835Z,24.48
2023-02-24T01:14:57.788Z,24.46
2023-02-24T01:15:57.756Z,24.48
2023-02-24T01:16:57.725Z,24.44
2023-02-24T01:17:57.672Z,24.49
2023-02-24T01:18:57.632Z,24.46
2023-02-24T01:19:57.583Z,24.50
2023-02-24T01:20:57.549Z,24.48
2023-02-24T01:21:57.515Z,24.48
2023-02-24T01:22:57.478Z,24.46
2023-02-24T01:23:57.437Z,24.44
2023-02-24T01:24:57.401Z,24.46
2023-02-24T01:25:57.345Z,24.42
2023-02-24T01:26:57.323Z,24.44
2023-02-24T01:27:57.263Z,24.44
2023-02-24T01:28:57.237Z,24.46
2023-02-24T01:29:57.190Z,24.44
2023-02-24T01:30:57.306Z,24.46
2023-02-24T01:31:57.257Z,24.44
2023-02-24T01:32:57.247Z,24.48
2023-02-24T01:33:57.046Z,24.46
2023-02-24T01:34:57.000Z,24.44
2023-02-24T01:35:56.959Z,24.44
2023-02-24T01:36:56.929Z,24.43
2023-02-24T01:37:56.887Z,24.44
2023-02-24T01:38:56.859Z,24.46
2023-02-24T01:39:56.859Z,24.42
2023-02-24T01:40:56.806Z,24.44
2023-02-24T01:41:56.766Z,24.44
2023-02-24T01:42:56.794Z,24.44
2023-02-24T01:43:56.699Z,24.48
2023-02-24T01:44:56.668Z,24.46
2023-02-24T01:45:56.620Z,24.44
2023-02-24T01:46:56.661Z,24.42
2023-02-24T01:47:56.566Z,24.46
2023-02-24T01:48:56.547Z,24.46
2023-02-24T01:49:56.506Z,24.43
2023-02-24T01:50:56.477Z,24.43
2023-02-24T01:51:56.436Z,24.43
2023-02-24T01:52:56.408Z,24.43
2023-02-24T01:53:56.370Z,24.44
2023-02-24T01:54:56.331Z,24.44
2023-02-24T01:55:56.296Z,24.44
2023-02-24T01:56:56.274Z,24.44
2023-02-24T01:57:56.215Z,24.43
2023-02-24T01:58:56.184Z,24.42
2023-02-24T01:59:56.146Z,24.43
2023-02-24T02:00:56.105Z,24.46
2023-02-24T02:01:56.128Z,24.44
2023-02-24T02:02:56.068Z,24.44
2023-02-24T02:03:55.986Z,24.44
2023-02-24T02:04:55.951Z,24.44
2023-02-24T02:05:55.920Z,24.44
2023-02-24T02:06:55.884Z,24.43
2023-02-24T02:07:55.845Z,24.43
2023-02-24T02:08:55.813Z,24.43
2023-02-24T02:09:55.791Z,24.39
2023-02-24T02:10:55.758Z,24.42
2023-02-24T02:11:55.731Z,24.42
2023-02-24T05:30:48.607Z,24.16
2023-02-24T05:42:48.069Z,24.18
2023-02-24T06:01:47.416Z,24.14
2023-02-24T06:02:47.410Z,24.09
2023-02-24T06:04:47.267Z,24.14
2023-02-24T06:05:47.231Z,24.14
2023-02-24T06:08:47.137Z,24.14
2023-02-24T06:09:47.094Z,24.12
2023-02-24T06:10:47.051Z,24.15
2023-02-24T06:11:47.112Z,24.14
2023-02-24T06:12:47.004Z,24.14
2023-02-24T06:13:46.971Z,24.11
2023-02-24T06:14:46.946Z,24.11
2023-02-24T06:15:46.913Z,24.14
2023-02-24T06:16:46.938Z,24.12
2023-02-24T06:17:46.830Z,24.14
2023-02-24T06:18:46.848Z,24.14
2023-02-24T06:19:46.753Z,24.15
2023-02-24T06:20:46.709Z,24.14
2023-02-24T06:21:46.675Z,24.14
2023-02-24T06:22:46.655Z,24.16
2023-02-24T06:23:46.616Z,24.16
2023-02-24T06:24:46.589Z,24.15
2023-02-24T06:25:46.549Z,24.12
2023-02-24T06:26:46.557Z,24.12
2023-02-24T06:27:46.494Z,24.16
2023-02-24T06:28:46.470Z,24.16
2023-02-24T06:29:46.435Z,24.12
2023-02-24T06:30:46.434Z,24.19
2023-02-24T06:31:46.461Z,24.16
2023-02-24T06:32:46.566Z,24.16
2023-02-24T06:33:46.322Z,24.22
2023-02-24T06:34:46.293Z,24.28
2023-02-24T06:35:46.259Z,24.31
2023-02-24T06:36:46.228Z,24.36
2023-02-24T06:37:46.185Z,24.44
2023-02-24T06:38:46.162Z,24.46
2023-02-24T06:39:46.162Z,24.53
2023-02-24T06:40:46.093Z,24.55
2023-02-24T06:41:46.082Z,24.59
2023-02-24T06:42:46.035Z,24.60
2023-02-24T06:43:45.987Z,24.59
2023-02-24T06:44:45.950Z,24.60
2023-02-24T06:45:45.927Z,24.64
2023-02-24T06:46:45.871Z,24.66
2023-02-24T06:47:45.836Z,24.67
2023-02-24T06:48:45.993Z,24.67
2023-02-24T06:49:45.760Z,24.70
2023-02-24T06:50:45.710Z,24.71
2023-02-24T06:51:45.677Z,24.77
2023-02-24T06:52:45.648Z,24.78
2023-02-24T06:53:45.629Z,24.78
2023-02-24T06:54:45.554Z,24.78
2023-02-24T06:55:45.494Z,24.81
2023-02-24T06:56:45.444Z,24.83
2023-02-24T06:57:45.492Z,24.87
2023-02-24T06:58:45.382Z,24.88
2023-02-24T06:59:45.312Z,24.90
2023-02-24T07:00:45.283Z,24.95
2023-02-24T07:01:45.522Z,24.95
2023-02-24T07:02:45.209Z,24.99
2023-02-24T07:03:45.184Z,24.99
2023-02-24T07:04:45.090Z,25.03
2023-02-24T07:05:45.050Z,25.04
2023-02-24T07:06:44.994Z,25.05
2023-02-24T07:07:44.933Z,25.05
2023-02-24T07:08:44.882Z,25.08
2023-02-24T07:09:44.825Z,25.10
2023-02-24T07:10:45.285Z,25.13
2023-02-24T07:11:46.724Z,25.13
2023-02-24T07:12:44.728Z,25.14
2023-02-24T07:13:44.667Z,25.18
2023-02-24T07:14:44.638Z,25.19
2023-02-24T07:15:44.596Z,25.22
2023-02-24T07:16:44.585Z,25.24
2023-02-24T07:17:44.721Z,25.24
2023-02-24T07:18:44.454Z,25.24
2023-02-24T07:19:44.428Z,25.28
2023-02-24T07:20:44.368Z,25.31
2023-02-24T07:21:44.318Z,25.32
2023-02-24T07:22:44.287Z,25.31
2023-02-24T07:23:44.244Z,25.35
2023-02-24T07:24:44.190Z,25.36
2023-02-24T07:25:44.140Z,25.36
2023-02-24T07:26:44.094Z,25.39
2023-02-24T07:27:44.062Z,25.38
2023-02-24T07:28:43.999Z,25.41
2023-02-24T07:29:43.961Z,25.42
2023-02-24T07:30:44.020Z,25.42
2023-02-24T07:31:44.055Z,25.43
2023-02-24T07:32:43.876Z,25.45
2023-02-24T07:33:43.798Z,25.43
2023-02-24T07:34:43.736Z,25.43
2023-02-24T07:35:43.702Z,25.43
2023-02-24T07:36:43.636Z,25.43
2023-02-24T07:37:43.586Z,25.43
2023-02-24T07:38:43.542Z,25.39
2023-02-24T07:39:43.495Z,25.42
2023-02-24T07:40:43.457Z,25.41
2023-02-24T07:41:43.514Z,25.41
2023-02-24T07:42:43.372Z,25.39
2023-02-24T07:43:43.308Z,25.32
2023-02-24T07:44:43.275Z,25.41
2023-02-24T07:45:43.331Z,25.45
2023-02-24T07:46:43.183Z,25.45
2023-02-24T07:47:43.163Z,25.48
2023-02-24T07:48:43.116Z,25.45
2023-02-24T07:49:43.050Z,25.45
2023-02-24T07:50:43.111Z,25.46
2023-02-24T07:51:42.945Z,25.43
2023-02-24T07:52:42.924Z,25.45
2023-02-24T07:53:42.866Z,25.45
2023-02-24T07:54:42.834Z,25.48
2023-02-24T07:55:42.779Z,25.48
2023-02-24T07:56:42.753Z,25.46
2023-02-24T07:57:42.678Z,25.49
2023-02-24T07:58:42.647Z,25.48
2023-02-24T07:59:42.605Z,25.46
2023-02-24T08:00:42.548Z,25.49
2023-02-24T08:01:42.506Z,25.43
2023-02-24T08:02:42.497Z,25.46
2023-02-24T08:03:42.422Z,25.46
2023-02-24T08:04:42.382Z,25.46
2023-02-24T08:05:42.386Z,25.48
2023-02-24T08:06:42.313Z,25.45
2023-02-24T08:07:42.245Z,25.48
2023-02-24T08:08:42.216Z,25.46
2023-02-24T08:09:42.150Z,25.46
2023-02-24T08:10:42.103Z,25.48
2023-02-24T08:11:42.051Z,25.45
2023-02-24T08:12:42.021Z,25.45
2023-02-24T08:13:41.951Z,25.42
2023-02-24T08:14:41.900Z,25.42
2023-02-24T08:15:41.979Z,25.42
2023-02-24T08:16:41.824Z,25.43
2023-02-24T08:17:41.769Z,25.39
2023-02-24T08:18:41.715Z,25.39
2023-02-24T08:19:41.674Z,25.36
2023-02-24T08:20:41.617Z,25.35
2023-02-24T08:21:41.605Z,25.35
2023-02-24T08:22:41.517Z,25.33
2023-02-24T08:23:41.467Z,25.31
2023-02-24T08:24:41.420Z,25.29
2023-02-24T08:25:41.386Z,25.26
2023-02-24T08:26:41.438Z,25.28
2023-02-24T08:27:41.304Z,25.28
2023-02-24T08:28:41.257Z,25.29
2023-02-24T08:29:41.219Z,25.28
2023-02-24T08:30:41.215Z,25.31
2023-02-24T08:31:41.343Z,25.32
2023-02-24T08:32:41.180Z,25.28
2023-02-24T08:33:41.038Z,25.31
2023-02-24T08:34:40.989Z,25.29
2023-02-24T08:35:40.956Z,25.28
2023-02-24T08:36:40.931Z,25.29
2023-02-24T08:37:40.858Z,25.29
2023-02-24T08:38:40.842Z,25.33
2023-02-24T08:39:40.824Z,25.35
2023-02-24T08:40:40.744Z,25.35
2023-02-24T08:41:40.701Z,25.35
2023-02-24T08:42:40.646Z,25.32
2023-02-24T08:43:40.594Z,25.31
2023-02-24T08:44:42.401Z,25.28
2023-02-24T08:45:40.522Z,25.29
2023-02-24T08:46:40.546Z,25.24
2023-02-24T08:47:40.464Z,25.25
2023-02-24T08:48:40.421Z,25.24
2023-02-24T08:49:40.407Z,25.24
2023-02-24T08:50:40.350Z,25.24
2023-02-24T08:51:40.311Z,25.21
2023-02-24T08:52:40.280Z,25.24
2023-02-24T08:53:40.273Z,25.19
2023-02-24T08:54:40.209Z,25.17
2023-02-24T08:55:40.234Z,25.17
2023-02-24T08:56:40.150Z,25.18
2023-02-24T08:57:40.113Z,25.19
2023-02-24T08:58:40.064Z,25.21
2023-02-24T08:59:40.036Z,25.24
2023-02-24T09:00:40.072Z,25.26
2023-02-24T09:01:40.019Z,25.22
2023-02-24T09:02:39.956Z,25.24
2023-02-24T09:03:39.909Z,25.26
2023-02-24T09:04:39.874Z,25.24
2023-02-24T09:05:39.798Z,25.28
2023-02-24T09:06:39.821Z,25.31
2023-02-24T09:07:39.724Z,25.26
2023-02-24T09:08:39.689Z,25.31
2023-02-24T09:09:39.638Z,25.28
2023-02-24T09:10:39.982Z,25.29
2023-02-24T09:11:39.542Z,25.32
2023-02-24T09:12:39.511Z,25.35
2023-02-24T09:13:39.455Z,25.33
2023-02-24T09:14:39.417Z,25.32
2023-02-24T09:15:39.361Z,25.32
2023-02-24T09:16:39.367Z,25.33
2023-02-24T09:17:39.283Z,25.35
2023-02-24T09:18:39.248Z,25.36
2023-02-24T09:19:39.196Z,25.38
2023-02-24T09:20:39.157Z,25.39
2023-02-24T09:21:39.126Z,25.42
2023-02-24T09:22:39.097Z,25.42
2023-02-24T09:23:39.010Z,25.41
2023-02-24T09:24:38.975Z,25.42
2023-02-24T09:25:38.927Z,25.42
2023-02-24T09:26:38.900Z,25.42
2023-02-24T09:27:38.829Z,25.43
2023-02-24T09:28:38.815Z,25.42
2023-02-24T09:29:38.734Z,25.42
2023-02-24T09:30:39.006Z,25.42
2023-02-24T09:31:38.860Z,25.41
2023-02-24T09:32:38.860Z,25.36
2023-02-24T09:33:38.574Z,25.36
2023-02-24T09:34:38.561Z,25.31
2023-02-24T09:35:38.486Z,25.35
2023-02-24T09:36:38.456Z,25.29
2023-02-24T09:37:38.486Z,25.32
2023-02-24T09:38:38.371Z,25.33
2023-02-24T09:39:38.352Z,25.32
2023-02-24T09:40:38.305Z,25.29
2023-02-24T09:41:38.286Z,25.31
2023-02-24T09:42:38.210Z,25.31
2023-02-24T09:43:38.176Z,25.29
2023-02-24T09:44:38.141Z,25.29
2023-02-24T09:45:38.352Z,25.31
2023-02-24T09:46:38.163Z,25.31
2023-02-24T09:47:38.007Z,25.26
2023-02-24T09:48:37.976Z,25.29
2023-02-24T09:49:37.949Z,25.26
2023-02-24T09:50:59.866Z,25.31
2023-02-24T09:51:38.853Z,25.31
2023-02-24T09:52:37.825Z,25.31
2023-02-24T09:53:40.740Z,25.28
2023-02-24T09:54:37.746Z,25.28
2023-02-24T09:55:37.705Z,25.28
2023-02-24T09:56:37.678Z,25.31
2023-02-24T09:57:37.720Z,25.32
2023-02-24T09:58:43.790Z,25.32
2023-02-24T09:59:38.595Z,25.32
2023-02-24T10:00:37.520Z,25.36
2023-02-24T10:01:37.533Z,25.35
2023-02-24T10:02:37.455Z,25.35
2023-02-24T10:03:37.409Z,25.35
2023-02-24T10:04:37.373Z,25.36
2023-02-24T10:05:37.372Z,25.35
2023-02-24T10:06:37.303Z,25.36
2023-02-24T10:07:37.304Z,25.36
2023-02-24T10:08:37.242Z,25.36
2023-02-24T10:09:37.199Z,25.38
2023-02-24T10:10:37.177Z,25.36
2023-02-24T10:11:37.104Z,25.35
2023-02-24T10:12:37.120Z,25.42
2023-02-24T10:13:37.094Z,25.42
2023-02-24T10:14:42.930Z,25.42
2023-02-24T10:15:37.990Z,25.42
2023-02-24T10:16:36.936Z,25.41
2023-02-24T10:17:36.879Z,25.42
2023-02-24T10:18:36.844Z,25.41
2023-02-24T10:19:36.801Z,25.41
2023-02-24T10:20:36.798Z,25.42
2023-02-24T10:21:36.705Z,25.42
2023-02-24T10:22:36.667Z,25.42
2023-02-24T10:23:36.634Z,25.41
2023-02-24T10:24:36.611Z,25.43
2023-02-24T10:25:36.599Z,25.42
2023-02-24T10:26:36.501Z,25.42
2023-02-24T10:27:36.476Z,25.43
2023-02-24T10:28:36.451Z,25.43
2023-02-24T10:29:36.408Z,25.45
2023-02-24T10:30:36.503Z,25.41
2023-02-24T10:31:36.482Z,25.42
2023-02-24T10:32:36.330Z,25.42
2023-02-24T10:33:36.292Z,25.38
2023-02-24T10:34:36.225Z,25.38
2023-02-24T10:35:36.174Z,25.36
2023-02-24T10:36:36.267Z,25.39
2023-02-24T10:37:36.092Z,25.38
2023-02-24T10:38:36.047Z,25.38
2023-02-24T10:39:36.020Z,25.39
2023-02-24T10:40:35.958Z,25.39
2023-02-24T10:41:35.950Z,25.39
2023-02-24T10:42:35.871Z,25.39
2023-02-24T10:43:35.860Z,25.35
2023-02-24T10:44:35.818Z,25.43
2023-02-24T10:45:35.765Z,25.43
2023-02-24T10:46:41.556Z,25.46
2023-02-24T10:47:36.679Z,25.48
2023-02-24T10:48:42.888Z,25.43
2023-02-24T10:49:36.611Z,25.48
2023-02-24T10:50:37.442Z,25.41
2023-02-24T10:51:35.542Z,25.49
2023-02-24T10:52:35.480Z,25.46
2023-02-24T10:53:35.435Z,25.50
2023-02-24T10:54:35.411Z,25.56
2023-02-24T10:55:35.341Z,25.60
2023-02-24T10:56:35.290Z,25.65
2023-02-24T10:57:35.279Z,25.66
2023-02-24T10:58:35.210Z,25.65
2023-02-24T10:59:35.185Z,25.69
2023-02-24T11:00:35.364Z,25.70
2023-02-24T11:01:35.115Z,25.77
2023-02-24T11:02:35.064Z,25.77
2023-02-24T11:03:35.076Z,25.72
2023-02-24T11:04:35.009Z,25.72
2023-02-24T11:05:34.939Z,25.76
2023-02-24T11:06:34.929Z,25.73
2023-02-24T11:07:35.079Z,25.80
2023-02-24T11:08:34.768Z,25.81
2023-02-24T11:09:34.760Z,25.66
2023-02-24T11:10:34.711Z,25.77
2023-02-24T11:11:34.663Z,25.77
2023-02-24T11:12:34.687Z,25.81
2023-02-24T11:13:34.579Z,25.81
2023-02-24T11:14:34.544Z,25.87
2023-02-24T11:15:34.544Z,25.91
2023-02-24T11:16:34.472Z,25.87
2023-02-24T11:17:34.461Z,25.88
2023-02-24T11:18:34.384Z,25.87
2023-02-24T11:19:34.345Z,25.91
2023-02-24T11:20:47.741Z,25.91
2023-02-24T11:21:35.363Z,25.93
2023-02-24T11:22:34.232Z,25.97
2023-02-24T11:23:34.182Z,25.94
2023-02-24T11:24:34.144Z,25.98
2023-02-24T11:25:34.152Z,25.98
2023-02-24T11:26:34.094Z,25.97
2023-02-24T11:27:34.048Z,25.98
2023-02-24T11:28:33.993Z,26.00
2023-02-24T11:29:33.947Z,26.00
2023-02-24T11:30:33.971Z,25.96
2023-02-24T11:31:33.964Z,25.98
2023-02-24T11:32:34.037Z,26.00
2023-02-24T11:33:33.762Z,26.00
2023-02-24T11:34:33.703Z,25.98
2023-02-24T11:35:33.664Z,25.98
2023-02-24T11:36:33.611Z,25.96
2023-02-24T11:37:33.566Z,25.90
2023-02-24T11:38:33.521Z,25.90
2023-02-24T11:39:33.518Z,25.98
2023-02-24T11:40:33.458Z,26.01
2023-02-24T11:41:33.409Z,26.07
2023-02-24T11:42:33.360Z,26.11
2023-02-24T11:43:33.320Z,26.13
2023-02-24T11:44:33.262Z,26.15
2023-02-24T11:45:33.214Z,26.09
2023-02-24T11:46:33.188Z,26.14
2023-02-24T11:47:33.128Z,26.11
2023-02-24T11:48:33.063Z,26.15
2023-02-24T11:49:33.027Z,26.14
2023-02-24T11:50:32.959Z,26.13
2023-02-24T11:51:32.916Z,26.05
2023-02-24T11:52:32.854Z,26.09
2023-02-24T11:53:32.812Z,26.13
2023-02-24T11:54:32.751Z,26.13
2023-02-24T11:55:32.696Z,26.14
2023-02-24T11:56:32.657Z,26.15
2023-02-24T11:57:32.623Z,26.14
2023-02-24T11:58:33.096Z,26.14
2023-02-24T11:59:32.544Z,26.15
2023-02-24T12:00:32.494Z,26.15
2023-02-24T12:01:32.505Z,26.20
2023-02-24T12:02:32.445Z,26.18
2023-02-24T12:03:32.336Z,26.20
2023-02-24T12:04:32.307Z,26.24
2023-02-24T12:05:32.280Z,26.24
2023-02-24T12:06:32.176Z,26.25
2023-02-24T12:07:32.137Z,26.25
2023-02-24T12:08:32.080Z,26.21
2023-02-24T12:09:32.040Z,26.21
2023-02-24T12:10:32.050Z,26.21
2023-02-24T12:11:32.017Z,26.23
2023-02-24T12:12:31.907Z,26.18
2023-02-24T12:13:31.850Z,26.17
2023-02-24T12:14:31.807Z,26.21
2023-02-24T12:15:32.754Z,26.21
2023-02-24T12:16:31.721Z,26.18
2023-02-24T12:17:31.649Z,26.20
2023-02-24T12:18:31.609Z,26.23
2023-02-24T12:19:31.546Z,26.15
2023-02-24T12:20:31.487Z,26.17
2023-02-24T12:21:31.442Z,26.17
2023-02-24T12:22:31.382Z,26.15
2023-02-24T12:23:31.336Z,26.17
2023-02-24T12:24:31.288Z,26.17
2023-02-24T12:25:31.289Z,26.14
2023-02-24T12:26:31.276Z,26.17
2023-02-24T12:27:31.157Z,26.20
2023-02-24T12:28:31.186Z,26.23
2023-02-24T12:29:31.041Z,26.15
2023-02-24T12:30:31.063Z,26.23
2023-02-24T12:31:31.082Z,26.24
2023-02-24T12:32:31.062Z,26.18
2023-02-24T12:33:30.874Z,26.18
2023-02-24T12:34:30.868Z,26.14
2023-02-24T12:35:30.801Z,26.14
2023-02-24T12:36:31.094Z,26.18
2023-02-24T12:37:30.688Z,26.14
2023-02-24T12:38:30.652Z,26.15
2023-02-24T12:39:30.584Z,26.14
2023-02-24T12:40:30.542Z,26.14
2023-02-24T12:41:30.518Z,26.07
2023-02-24T12:42:30.446Z,26.08
2023-02-24T12:43:30.410Z,26.08
2023-02-24T12:44:30.351Z,26.09
2023-02-24T12:45:30.346Z,26.11
2023-02-24T12:46:30.264Z,26.13
2023-02-24T12:47:30.206Z,26.08
2023-02-24T12:48:30.153Z,26.09
2023-02-24T12:49:30.145Z,26.11
2023-02-24T12:50:30.077Z,26.09
2023-02-24T12:51:30.060Z,26.04
2023-02-24T12:52:29.994Z,26.03
2023-02-24T12:53:29.978Z,26.00
2023-02-24T12:54:29.923Z,25.98
2023-02-24T12:55:29.862Z,26.00
2023-02-24T12:56:29.819Z,25.98
2023-02-24T12:57:29.783Z,25.93
2023-02-24T12:58:29.782Z,25.94
2023-02-24T12:59:29.712Z,25.93
2023-02-24T13:00:29.618Z,25.90
2023-02-24T13:01:29.656Z,25.90
2023-02-24T13:02:29.562Z,25.90
2023-02-24T13:03:29.484Z,25.87
2023-02-24T13:04:29.434Z,25.88
2023-02-24T13:05:29.486Z,25.87
2023-02-24T13:06:29.350Z,25.90
2023-02-24T13:07:29.324Z,25.87
2023-02-24T13:08:29.266Z,25.87
2023-02-24T13:09:29.218Z,25.86
2023-02-24T13:10:29.202Z,25.87
2023-02-24T13:11:29.136Z,25.84
2023-02-24T13:12:29.095Z,25.87
2023-02-24T13:13:29.055Z,25.86
2023-02-24T13:14:29.002Z,25.87
2023-02-24T13:15:28.960Z,25.87
2023-02-24T13:16:28.960Z,25.87
2023-02-24T13:17:28.889Z,25.86
2023-02-24T13:18:28.869Z,25.87
2023-02-24T13:19:28.807Z,25.88
2023-02-24T13:20:28.776Z,25.88
2023-02-24T13:21:28.733Z,25.88
2023-02-24T13:22:28.677Z,25.88
2023-02-24T13:23:28.627Z,25.88
2023-02-24T13:24:28.598Z,25.88
2023-02-24T13:25:28.575Z,25.90
2023-02-24T13:26:28.504Z,25.91
2023-02-24T13:27:28.464Z,25.91
2023-02-24T13:28:28.415Z,25.90
2023-02-24T13:29:28.368Z,25.94
2023-02-24T13:30:28.364Z,25.90
2023-02-24T13:31:28.323Z,25.91
2023-02-24T13:32:28.417Z,25.93
2023-02-24T13:33:28.203Z,25.94
2023-02-24T13:34:28.166Z,25.96
2023-02-24T13:35:28.113Z,25.94
2023-02-24T13:36:28.069Z,25.97
2023-02-24T13:37:28.036Z,25.97
2023-02-24T13:38:27.978Z,26.00
2023-02-24T13:39:27.938Z,26.00
2023-02-24T13:40:27.886Z,26.01
2023-02-24T13:41:27.842Z,26.03
2023-02-24T13:42:27.811Z,26.05
2023-02-24T13:43:27.744Z,26.05
2023-02-24T13:44:27.681Z,26.05
2023-02-24T13:45:27.656Z,26.08
2023-02-24T13:46:27.685Z,26.08
2023-02-24T13:47:27.527Z,26.11
2023-02-24T13:48:27.498Z,26.11
2023-02-24T13:49:27.447Z,26.17
2023-02-24T13:50:27.383Z,26.17
2023-02-24T13:51:27.324Z,26.20
2023-02-24T13:52:27.285Z,26.21
2023-02-24T13:53:27.228Z,26.25
2023-02-24T13:54:27.193Z,26.24
2023-02-24T13:55:27.125Z,26.25
2023-02-24T13:56:27.057Z,26.28
2023-02-24T13:57:27.020Z,26.28
2023-02-24T13:58:26.957Z,26.31
2023-02-24T13:59:26.961Z,26.31
2023-02-24T14:00:26.859Z,26.34
2023-02-24T14:01:27.045Z,26.36
2023-02-24T14:02:26.802Z,26.39
2023-02-24T14:03:26.727Z,26.39
2023-02-24T14:04:29.050Z,26.39
2023-02-24T14:05:26.628Z,26.41
2023-02-24T14:06:26.551Z,26.42
2023-02-24T14:07:26.521Z,26.43
2023-02-24T14:08:26.454Z,26.43
2023-02-24T14:09:26.413Z,26.45
2023-02-24T14:10:26.386Z,26.46
2023-02-24T14:11:26.322Z,26.46
2023-02-24T14:12:26.258Z,26.45
2023-02-24T14:13:26.215Z,26.48
2023-02-24T14:14:26.156Z,26.45
2023-02-24T14:15:26.111Z,26.45
2023-02-24T14:16:26.321Z,26.45
2023-02-24T14:17:26.027Z,26.42
2023-02-24T14:18:26.006Z,26.43
2023-02-24T14:19:25.960Z,26.43
2023-02-24T14:20:25.897Z,26.48
2023-02-24T14:21:25.852Z,26.46
2023-02-24T14:22:25.820Z,26.45
2023-02-24T14:23:25.760Z,26.42
2023-02-24T14:24:25.693Z,26.41
2023-02-24T14:25:25.665Z,26.42
2023-02-24T14:26:25.609Z,26.42
2023-02-24T14:27:25.570Z,26.43
2023-02-24T14:28:25.512Z,26.45
2023-02-24T14:29:25.484Z,26.42
2023-02-24T14:30:25.470Z,26.43
2023-02-24T14:31:25.472Z,26.46
2023-02-24T14:32:25.476Z,26.43
2023-02-24T14:33:25.310Z,26.43
2023-02-24T14:34:25.249Z,26.46
2023-02-24T14:35:25.240Z,26.48
2023-02-24T14:36:25.395Z,26.48
2023-02-24T14:37:25.137Z,26.46
2023-02-24T14:38:25.110Z,26.48
2023-02-24T14:39:25.065Z,26.45
2023-02-24T14:40:24.992Z,26.46
2023-02-24T14:41:24.941Z,26.46
2023-02-24T14:42:24.903Z,26.46
2023-02-24T14:43:24.860Z,26.48
2023-02-24T14:44:24.809Z,26.48
2023-02-24T14:45:24.762Z,26.46
2023-02-24T14:46:25.299Z,26.45
2023-02-24T14:47:24.662Z,26.43
2023-02-24T14:48:24.619Z,26.43
2023-02-24T14:49:24.581Z,26.41
2023-02-24T14:50:24.521Z,26.38
2023-02-24T14:51:24.563Z,26.35
2023-02-24T14:52:24.478Z,26.38
2023-02-24T14:53:24.399Z,26.34
2023-02-24T14:54:24.469Z,26.32
2023-02-24T14:55:24.310Z,26.30
2023-02-24T14:56:24.647Z,26.27
2023-02-24T14:57:24.226Z,26.25
2023-02-24T14:58:24.183Z,26.25
2023-02-24T14:59:24.150Z,26.24
2023-02-24T15:00:24.540Z,26.25
2023-02-24T15:01:24.181Z,26.23
2023-02-24T15:02:24.022Z,26.20
2023-02-24T15:03:24.049Z,26.23
2023-02-24T15:04:23.943Z,26.23
2023-02-24T15:05:23.910Z,26.18
2023-02-24T15:06:24.152Z,26.17
2023-02-24T15:07:23.849Z,26.15
2023-02-24T15:08:23.788Z,26.17
2023-02-24T15:09:23.768Z,26.15
2023-02-24T15:10:23.708Z,26.15
2023-02-24T15:11:23.630Z,26.14
2023-02-24T15:12:23.584Z,26.14
2023-02-24T15:13:23.523Z,26.13
2023-02-24T15:14:23.518Z,26.13
2023-02-24T15:15:23.426Z,26.09
2023-02-24T15:16:23.937Z,26.05
2023-02-24T15:17:23.334Z,26.09
2023-02-24T15:18:23.297Z,26.04
2023-02-24T15:19:23.236Z,26.07
2023-02-24T15:20:23.199Z,26.05
2023-02-24T15:21:23.147Z,26.05
2023-02-24T15:22:23.135Z,26.04
2023-02-24T15:23:23.043Z,26.01
2023-02-24T15:24:23.005Z,26.03
2023-02-24T15:25:28.137Z,26.01
2023-02-24T15:26:23.931Z,26.01
2023-02-24T15:27:22.881Z,26.00
2023-02-24T15:28:22.840Z,25.97
2023-02-24T15:29:22.800Z,25.97
2023-02-24T15:30:22.748Z,25.97
2023-02-24T15:31:22.858Z,25.96
2023-02-24T15:32:22.783Z,25.96
2023-02-24T15:33:22.635Z,25.97
2023-02-24T15:34:22.583Z,25.98
2023-02-24T15:35:22.550Z,25.96
2023-02-24T15:36:22.717Z,25.94
2023-02-24T15:37:22.470Z,25.91
2023-02-24T15:38:22.423Z,25.94
2023-02-24T15:39:22.401Z,25.91
2023-02-24T15:40:22.338Z,25.91
2023-02-24T15:41:22.283Z,25.91
2023-02-24T15:42:22.248Z,25.91
2023-02-24T15:43:22.204Z,25.90
2023-02-24T15:44:22.156Z,25.90
2023-02-24T15:45:22.107Z,25.87
2023-02-24T15:46:22.441Z,25.87
2023-02-24T15:47:22.011Z,25.88
2023-02-24T15:48:21.996Z,25.91
2023-02-24T15:49:21.905Z,25.87
2023-02-24T15:50:21.874Z,25.87
2023-02-24T15:51:21.841Z,25.87
2023-02-24T15:52:21.790Z,25.86
2023-02-24T15:53:21.757Z,25.84
2023-02-24T15:54:21.714Z,25.83
2023-02-24T15:55:21.674Z,25.83
2023-02-24T15:56:21.862Z,25.83
2023-02-24T15:57:21.594Z,25.81
2023-02-24T15:58:21.592Z,25.79
2023-02-24T15:59:21.516Z,25.80
2023-02-24T16:00:21.877Z,25.79
2023-02-24T16:01:21.531Z,25.77
2023-02-24T16:02:21.408Z,25.79
2023-02-24T16:03:21.361Z,25.79
2023-02-24T16:04:21.365Z,25.77
2023-02-24T16:05:21.282Z,25.77
2023-02-24T16:06:21.566Z,25.76
2023-02-24T16:07:21.205Z,25.75
2023-02-24T16:08:21.160Z,25.73
2023-02-24T16:09:21.121Z,25.72
2023-02-24T16:10:21.084Z,25.73
2023-02-24T16:11:21.037Z,25.73
2023-02-24T16:12:21.840Z,25.72
2023-02-24T16:13:20.952Z,25.72
2023-02-24T16:14:20.901Z,25.69
2023-02-24T16:15:20.875Z,25.70
2023-02-24T16:16:21.301Z,25.70
2023-02-24T16:17:20.777Z,25.68
2023-02-24T16:18:22.351Z,25.69
2023-02-24T16:19:20.717Z,25.68
2023-02-24T16:20:20.686Z,25.69
2023-02-24T16:21:20.697Z,25.69
2023-02-24T16:22:20.601Z,25.68
2023-02-24T16:23:20.561Z,25.65
2023-02-24T16:24:21.651Z,25.66
2023-02-24T16:25:20.505Z,25.65
2023-02-24T16:26:20.600Z,25.63
2023-02-24T16:27:20.410Z,25.63
2023-02-24T16:28:20.365Z,25.63
2023-02-24T16:29:20.326Z,25.62
2023-02-24T16:30:22.593Z,25.65
2023-02-24T16:31:20.512Z,25.62
2023-02-24T16:32:20.494Z,25.62
2023-02-24T16:33:20.505Z,25.59
2023-02-24T16:34:20.226Z,25.60
2023-02-24T16:35:20.160Z,25.58
2023-02-24T16:36:21.646Z,25.58
2023-02-24T16:37:20.085Z,25.59
2023-02-24T16:38:20.041Z,25.58
2023-02-24T16:39:20.002Z,25.58
2023-02-24T16:40:19.963Z,25.56
2023-02-24T16:41:19.913Z,25.56